EDLV

Niederrhein Airport

Weeze, Germany
METAR EDLV 242150Z 19006KT CAVOK 14/10 Q1010
Observed Flight Rules
Apr-24 @ 21:50 UTC (3 hours ago) Visual Flight Rules
Wind Visibility Clouds
190° at 6 knots 10,000+ meters
  • Clear skies
Temperatures Readings
Current 14°C / 57°F
Dewpoint 10°C / 50°F
Humidity 77%
Altimeter 29.82" Hg
Pressure 1010 hPa
Elevation 32
METAR EDLV 242150Z 19006KT CAVOK 14/10 Q1010
Observed Flight Rules
Apr-24 @ 21:50 UTC
(3 hours ago)
VFR
Wind Visibility
190° at 6 knots 10,000+ meters
Clouds
  • Clear skies
Temperature Dewpoint
14°C / 57°F 10°C / 50°F
Humidity Altimeter Pressure
77% 29.82" Hg 1010 hPa